createdAt,value
2016-12-24T00:00:36.013Z,51.23
2016-12-24T00:01:44.995Z,51.23
2016-12-24T00:02:54.295Z,51.04
2016-12-24T00:04:02.980Z,51.04
2016-12-24T00:05:11.967Z,51.23
2016-12-24T00:06:21.920Z,51.23
2016-12-24T00:07:30.920Z,51.14
2016-12-24T00:08:40.527Z,51.04
2016-12-24T00:09:50.176Z,51.14
2016-12-24T00:10:59.169Z,51.23
2016-12-24T00:12:07.955Z,51.23
2016-12-24T00:13:16.650Z,51.33
2016-12-24T00:14:25.950Z,51.43
2016-12-24T00:15:34.654Z,51.53
2016-12-24T00:16:43.346Z,51.33
2016-12-24T00:17:52.985Z,51.14
2016-12-24T00:19:02.907Z,51.62
2016-12-24T00:20:11.614Z,51.53
2016-12-24T00:21:20.920Z,51.72
2016-12-24T00:22:29.918Z,51.81
2016-12-24T00:23:39.518Z,51.62
2016-12-24T00:24:48.523Z,51.62
2016-12-24T00:25:57.505Z,51.62
2016-12-24T00:27:06.508Z,51.53
2016-12-24T00:28:15.824Z,51.53
2016-12-24T00:29:25.119Z,51.53
2016-12-24T00:30:34.417Z,51.53
2016-12-24T00:31:43.108Z,51.53
2016-12-24T00:32:51.788Z,51.43
2016-12-24T00:34:00.788Z,51.33
2016-12-24T00:35:10.389Z,51.33
2016-12-24T00:36:20.305Z,51.72
2016-12-24T00:37:29.002Z,51.62
2016-12-24T00:38:37.993Z,51.62
2016-12-24T00:39:46.976Z,51.81
2016-12-24T00:40:56.276Z,51.62
2016-12-24T00:42:04.971Z,51.72
2016-12-24T00:43:13.965Z,51.62
2016-12-24T00:44:22.663Z,51.81
2016-12-24T00:45:31.647Z,51.81
2016-12-24T00:46:40.639Z,51.62
2016-12-24T00:47:49.634Z,51.81
2016-12-24T00:48:58.322Z,51.81
2016-12-24T00:50:07.316Z,51.81
2016-12-24T00:51:16.617Z,51.72
2016-12-24T00:52:26.238Z,51.53
2016-12-24T00:53:35.538Z,51.53
2016-12-24T00:54:44.549Z,51.43
2016-12-24T00:55:53.850Z,51.53
2016-12-24T00:57:02.548Z,51.53
2016-12-24T00:58:12.143Z,51.33
2016-12-24T00:59:21.143Z,51.62
2016-12-24T01:00:30.141Z,51.53
2016-12-24T01:01:39.131Z,51.53
2016-12-24T01:02:47.829Z,51.62
2016-12-24T01:03:56.665Z,51.62
2016-12-24T01:05:05.660Z,51.62
2016-12-24T01:06:14.668Z,51.62
2016-12-24T01:07:23.370Z,51.62
2016-12-24T01:08:33.063Z,51.33
2016-12-24T01:09:42.667Z,51.62
2016-12-24T01:10:51.986Z,51.33
2016-12-24T01:12:00.682Z,51.33
2016-12-24T01:13:10.305Z,51.33
2016-12-24T01:14:19.615Z,51.33
2016-12-24T01:15:29.071Z,51.33
2016-12-24T01:16:37.822Z,51.33
2016-12-24T01:17:47.434Z,51.62
2016-12-24T01:18:56.432Z,51.33
2016-12-24T01:20:05.739Z,51.33
2016-12-24T01:21:14.733Z,51.43
2016-12-24T01:22:24.037Z,51.43
2016-12-24T01:23:32.733Z,51.43
2016-12-24T01:24:42.033Z,51.53
2016-12-24T01:25:51.647Z,51.43
2016-12-24T01:27:00.441Z,51.43
2016-12-24T01:28:09.749Z,51.43
2016-12-24T01:29:18.740Z,51.43
2016-12-24T01:30:27.741Z,51.43
2016-12-24T01:31:37.050Z,51.33
2016-12-24T01:32:45.893Z,51.33
2016-12-24T01:33:54.889Z,51.33
2016-12-24T01:35:04.202Z,51.33
2016-12-24T01:36:13.193Z,51.43
2016-12-24T01:37:21.888Z,51.43
2016-12-24T01:38:30.752Z,51.33
2016-12-24T01:39:39.748Z,51.43
2016-12-24T01:40:48.748Z,51.43
2016-12-24T01:41:58.064Z,51.53
2016-12-24T01:43:07.072Z,51.72
2016-12-24T01:44:16.221Z,51.43
2016-12-24T01:45:25.527Z,51.72
2016-12-24T01:46:34.217Z,51.43
2016-12-24T01:47:42.927Z,51.43
2016-12-24T01:48:51.927Z,51.62
2016-12-24T01:50:00.771Z,51.62
2016-12-24T01:51:10.131Z,51.43
2016-12-24T01:52:19.164Z,51.43
2016-12-24T01:53:28.160Z,51.43
2016-12-24T01:54:37.775Z,51.43
2016-12-24T01:55:46.463Z,51.43
2016-12-24T01:56:55.762Z,51.43
2016-12-24T01:58:04.460Z,51.81
2016-12-24T01:59:13.149Z,51.81
2016-12-24T02:00:22.146Z,51.23
2016-12-24T02:01:31.797Z,51.43
2016-12-24T02:02:40.794Z,51.81
2016-12-24T02:03:49.542Z,51.81
2016-12-24T02:04:58.534Z,51.81
2016-12-24T02:06:08.146Z,51.72
2016-12-24T02:07:17.523Z,51.81
2016-12-24T02:08:26.213Z,51.23
2016-12-24T02:09:35.200Z,51.43
2016-12-24T02:10:44.187Z,51.72
2016-12-24T02:11:53.478Z,51.81
2016-12-24T02:13:02.560Z,51.72
2016-12-24T02:14:11.558Z,51.81
2016-12-24T02:15:20.861Z,51.53
2016-12-24T02:16:29.551Z,51.72
2016-12-24T02:17:38.859Z,51.62
2016-12-24T02:18:48.489Z,51.72
2016-12-24T02:19:57.783Z,51.72
2016-12-24T02:21:06.468Z,51.72
2016-12-24T02:22:15.146Z,51.62
2016-12-24T02:23:24.146Z,51.62
2016-12-24T02:24:32.941Z,51.72
2016-12-24T02:25:42.270Z,51.53
2016-12-24T02:26:50.967Z,51.62
2016-12-24T02:28:00.306Z,51.53
2016-12-24T02:29:09.923Z,51.62
2016-12-24T02:30:19.012Z,51.72
2016-12-24T02:31:28.046Z,51.62
2016-12-24T02:32:37.711Z,51.62
2016-12-24T02:33:47.355Z,51.43
2016-12-24T02:34:56.360Z,51.62
2016-12-24T02:36:05.661Z,51.43
2016-12-24T02:37:14.667Z,51.43
2016-12-24T02:38:23.673Z,51.62
2016-12-24T02:39:32.665Z,51.62
2016-12-24T02:40:41.661Z,51.53
2016-12-24T02:41:50.808Z,51.43
2016-12-24T02:42:59.495Z,51.43
2016-12-24T02:44:08.486Z,51.53
2016-12-24T02:45:17.481Z,51.43
2016-12-24T02:46:26.790Z,51.62
2016-12-24T02:47:35.481Z,51.53
2016-12-24T02:48:44.783Z,51.81
2016-12-24T02:49:53.765Z,51.43
2016-12-24T02:51:02.461Z,51.81
2016-12-24T02:52:11.770Z,51.72
2016-12-24T02:53:21.194Z,51.81
2016-12-24T02:54:30.200Z,51.62
2016-12-24T02:55:38.886Z,51.53
2016-12-24T02:56:47.888Z,51.62
2016-12-24T02:57:57.525Z,51.72
2016-12-24T02:59:06.321Z,51.53
2016-12-24T03:00:15.312Z,51.43
2016-12-24T03:01:24.627Z,51.81
2016-12-24T03:02:33.328Z,51.62
2016-12-24T03:03:42.958Z,51.53
2016-12-24T03:04:52.425Z,51.62
2016-12-24T03:06:01.750Z,51.62
2016-12-24T03:07:10.438Z,51.91
2016-12-24T03:08:19.436Z,51.72
2016-12-24T03:09:28.445Z,51.81
2016-12-24T03:10:37.448Z,51.62
2016-12-24T03:11:46.438Z,51.72
2016-12-24T03:12:55.140Z,51.91
2016-12-24T03:14:04.470Z,51.91
2016-12-24T03:15:13.470Z,51.62
2016-12-24T03:16:22.919Z,51.72
2016-12-24T03:17:31.608Z,51.62
2016-12-24T03:18:40.320Z,51.53
2016-12-24T03:19:49.320Z,51.62
2016-12-24T03:20:58.950Z,51.72
2016-12-24T03:22:08.602Z,51.72
2016-12-24T03:23:17.290Z,51.81
2016-12-24T03:24:25.984Z,51.72
2016-12-24T03:25:35.284Z,51.72
2016-12-24T03:26:44.576Z,51.62
2016-12-24T03:27:54.222Z,51.62
2016-12-24T03:29:03.527Z,51.91
2016-12-24T03:30:13.138Z,51.81
2016-12-24T03:31:22.138Z,51.43
2016-12-24T03:32:31.448Z,51.53
2016-12-24T03:33:41.053Z,51.72
2016-12-24T03:34:49.733Z,51.43
2016-12-24T03:35:58.446Z,51.53
2016-12-24T03:37:07.439Z,51.62
2016-12-24T03:38:16.779Z,51.81
2016-12-24T03:39:25.791Z,51.62
2016-12-24T03:40:34.798Z,51.62
2016-12-24T03:41:44.098Z,51.53
2016-12-24T03:42:53.411Z,51.53
2016-12-24T03:44:02.411Z,51.62
2016-12-24T03:45:11.726Z,51.81
2016-12-24T03:46:20.717Z,51.43
2016-12-24T03:47:30.043Z,51.62
2016-12-24T03:48:38.736Z,51.43
2016-12-24T03:49:47.731Z,51.62
2016-12-24T03:50:57.084Z,51.43
2016-12-24T03:52:06.078Z,51.53
2016-12-24T03:53:15.060Z,51.53
2016-12-24T03:54:23.739Z,51.53
2016-12-24T03:55:32.430Z,51.62
2016-12-24T03:56:41.734Z,51.53
2016-12-24T03:57:50.720Z,51.53
2016-12-24T03:58:59.712Z,51.81
2016-12-24T04:00:08.408Z,51.81
2016-12-24T04:01:17.408Z,51.81
2016-12-24T04:02:26.233Z,51.81
2016-12-24T04:03:35.217Z,51.43
2016-12-24T04:04:44.211Z,51.43
2016-12-24T04:05:53.211Z,51.43
2016-12-24T04:07:02.517Z,51.43
2016-12-24T04:08:11.526Z,51.53
2016-12-24T04:09:20.530Z,51.43
2016-12-24T04:10:29.525Z,51.43
2016-12-24T04:11:38.209Z,51.43
2016-12-24T04:12:47.210Z,51.62
2016-12-24T04:13:56.368Z,51.43
2016-12-24T04:15:05.067Z,51.43
2016-12-24T04:16:13.755Z,51.33
2016-12-24T04:17:22.446Z,51.43
2016-12-24T04:18:31.447Z,51.43
2016-12-24T04:19:40.792Z,51.62
2016-12-24T04:20:49.478Z,51.53
2016-12-24T04:21:58.158Z,51.62
2016-12-24T04:23:07.451Z,51.62
2016-12-24T04:24:16.147Z,51.72
2016-12-24T04:25:25.181Z,51.62
2016-12-24T04:26:34.212Z,51.53
2016-12-24T04:27:42.905Z,51.62
2016-12-24T04:28:51.596Z,51.62
2016-12-24T04:30:00.916Z,51.62
2016-12-24T04:31:10.229Z,51.53
2016-12-24T04:32:19.243Z,51.62
2016-12-24T04:33:27.933Z,51.72
2016-12-24T04:34:36.631Z,51.72
2016-12-24T04:35:45.314Z,51.72
2016-12-24T04:36:54.419Z,51.72
2016-12-24T04:38:03.105Z,51.72
2016-12-24T04:39:12.111Z,51.62
2016-12-24T04:40:21.104Z,51.62
2016-12-24T04:41:30.098Z,51.72
2016-12-24T04:42:39.118Z,51.62
2016-12-24T04:43:48.118Z,51.91
2016-12-24T04:44:56.824Z,51.62
2016-12-24T04:46:06.117Z,51.62
2016-12-24T04:47:14.794Z,51.62
2016-12-24T04:48:23.837Z,51.53
2016-12-24T04:49:32.530Z,51.33
2016-12-24T04:50:41.524Z,51.62
2016-12-24T04:51:50.214Z,51.62
2016-12-24T04:52:58.907Z,51.53
2016-12-24T04:54:07.989Z,51.81
2016-12-24T04:55:17.289Z,51.53
2016-12-24T04:56:26.596Z,51.81
2016-12-24T04:57:35.282Z,51.53
2016-12-24T04:58:44.282Z,51.53
2016-12-24T04:59:53.757Z,51.53
2016-12-24T05:01:03.060Z,51.62
2016-12-24T05:02:12.363Z,51.62
2016-12-24T05:03:21.374Z,51.62
2016-12-24T05:04:30.364Z,51.62
2016-12-24T05:05:39.401Z,51.62
2016-12-24T05:06:48.392Z,51.62
2016-12-24T05:07:57.388Z,51.62
2016-12-24T05:09:06.691Z,51.72
2016-12-24T05:10:15.983Z,51.72
2016-12-24T05:11:25.320Z,51.43
2016-12-24T05:12:34.941Z,51.72
2016-12-24T05:13:44.244Z,51.43
2016-12-24T05:14:53.242Z,51.23
2016-12-24T05:16:02.236Z,51.33
2016-12-24T05:17:11.276Z,51.43
2016-12-24T05:18:19.953Z,51.43
2016-12-24T05:19:28.959Z,51.53
2016-12-24T05:20:38.596Z,51.72
2016-12-24T05:21:47.282Z,51.62
2016-12-24T05:22:55.976Z,51.72
2016-12-24T05:24:04.969Z,51.43
2016-12-24T05:25:13.987Z,51.33
2016-12-24T05:26:22.985Z,51.33
2016-12-24T05:27:31.990Z,51.23
2016-12-24T05:28:40.832Z,51.23
2016-12-24T05:29:49.819Z,51.14
2016-12-24T05:30:58.819Z,51.14
2016-12-24T05:32:07.508Z,51.14
2016-12-24T05:33:16.196Z,51.04
2016-12-24T05:34:25.375Z,51.14
2016-12-24T05:35:34.379Z,51.23
2016-12-24T05:36:43.680Z,51.23
2016-12-24T05:37:53.292Z,51.23
2016-12-24T05:39:02.286Z,51.33
2016-12-24T05:40:11.997Z,51.04
2016-12-24T05:41:20.696Z,51.23
2016-12-24T05:42:29.694Z,51.04
2016-12-24T05:43:38.991Z,51.23
2016-12-24T05:44:47.990Z,51.23
2016-12-24T05:45:56.990Z,51.23
2016-12-24T05:47:06.299Z,51.04
2016-12-24T05:48:15.602Z,51.23
2016-12-24T05:49:24.296Z,51.04
2016-12-24T05:50:33.306Z,51.04
2016-12-24T05:51:41.985Z,51.04
2016-12-24T05:52:50.671Z,51.14
2016-12-24T05:53:59.972Z,51.14
2016-12-24T05:55:08.974Z,50.85
2016-12-24T05:56:17.968Z,50.85
2016-12-24T05:57:27.263Z,50.76
2016-12-24T05:58:36.246Z,51.14
2016-12-24T05:59:45.541Z,51.04
2016-12-24T06:00:54.867Z,51.14
2016-12-24T06:02:03.860Z,51.14
2016-12-24T06:03:13.002Z,51.14
2016-12-24T06:04:21.749Z,51.14
2016-12-24T06:05:30.434Z,50.76
2016-12-24T06:06:39.747Z,51.14
2016-12-24T06:07:48.741Z,50.66
2016-12-24T06:08:58.093Z,50.76
2016-12-24T06:10:07.082Z,50.76
2016-12-24T06:11:16.088Z,51.04
2016-12-24T06:12:24.774Z,50.76
2016-12-24T06:13:33.800Z,50.85
2016-12-24T06:14:43.694Z,50.95
2016-12-24T06:15:53.007Z,50.85
2016-12-24T06:17:02.029Z,50.85
2016-12-24T06:18:11.026Z,50.95
2016-12-24T06:19:20.342Z,51.04
2016-12-24T06:20:29.498Z,50.95
2016-12-24T06:21:38.194Z,50.95
2016-12-24T06:22:47.177Z,50.95
2016-12-24T06:23:55.860Z,50.85
2016-12-24T06:25:04.542Z,50.95
2016-12-24T06:26:13.899Z,50.95
2016-12-24T06:27:22.895Z,51.04
2016-12-24T06:28:31.897Z,51.04
2016-12-24T06:29:40.582Z,51.14
2016-12-24T06:30:49.893Z,51.04
2016-12-24T06:31:59.334Z,50.95
2016-12-24T06:33:08.631Z,51.14
2016-12-24T06:34:17.927Z,51.14
2016-12-24T06:35:27.231Z,51.04
2016-12-24T06:36:35.923Z,51.04
2016-12-24T06:37:44.605Z,51.23
2016-12-24T06:38:53.626Z,51.33
2016-12-24T06:40:02.316Z,51.04
2016-12-24T06:41:11.918Z,51.23
2016-12-24T06:42:21.216Z,51.14
2016-12-24T06:43:30.675Z,50.95
2016-12-24T06:44:39.708Z,51.04
2016-12-24T06:45:48.388Z,51.04
2016-12-24T06:46:58.307Z,51.04
2016-12-24T06:48:07.597Z,51.04
2016-12-24T06:49:16.945Z,50.95
2016-12-24T06:50:25.936Z,51.04
2016-12-24T06:51:34.647Z,51.04
2016-12-24T06:52:44.871Z,50.76
2016-12-24T06:53:53.559Z,51.04
2016-12-24T06:55:02.593Z,50.95
2016-12-24T06:56:11.593Z,50.95
2016-12-24T06:57:20.888Z,50.95
2016-12-24T06:58:29.584Z,50.76
2016-12-24T06:59:38.268Z,50.95
2016-12-24T07:00:47.250Z,50.76
2016-12-24T07:01:56.258Z,50.95
2016-12-24T07:03:04.973Z,50.95
2016-12-24T07:04:13.661Z,51.04
2016-12-24T07:05:22.661Z,50.56
2016-12-24T07:06:32.112Z,50.95
2016-12-24T07:07:40.855Z,50.95
2016-12-24T07:08:49.542Z,50.95
2016-12-24T07:09:58.536Z,50.82
2016-12-24T07:11:07.838Z,50.95
2016-12-24T07:12:17.185Z,50.95
2016-12-24T07:13:25.886Z,50.95
2016-12-24T07:14:34.910Z,50.95
2016-12-24T07:15:43.912Z,50.73
2016-12-24T07:16:52.934Z,50.56
2016-12-24T07:18:02.073Z,50.76
2016-12-24T07:19:11.680Z,50.85
2016-12-24T07:20:20.668Z,50.85
2016-12-24T07:21:29.660Z,50.37
2016-12-24T07:22:38.346Z,50.46
2016-12-24T07:23:48.307Z,50.46
2016-12-24T07:24:57.015Z,50.66
2016-12-24T07:26:06.015Z,50.66
2016-12-24T07:27:15.021Z,50.56
2016-12-24T07:28:24.012Z,50.76
2016-12-24T07:29:32.695Z,50.56
2016-12-24T07:30:41.679Z,50.46
2016-12-24T07:31:50.675Z,50.76
2016-12-24T07:32:59.673Z,50.66
2016-12-24T07:34:08.973Z,50.56
2016-12-24T07:35:18.455Z,50.56
2016-12-24T07:36:27.218Z,50.56
2016-12-24T07:37:36.225Z,50.56
2016-12-24T07:38:44.922Z,50.56
2016-12-24T07:39:53.912Z,50.46
2016-12-24T07:41:02.595Z,50.46
2016-12-24T07:42:11.594Z,50.56
2016-12-24T07:43:20.594Z,50.56
2016-12-24T07:44:29.895Z,50.76
2016-12-24T07:45:39.832Z,50.76
2016-12-24T07:46:48.983Z,50.76
2016-12-24T07:47:58.012Z,50.46
2016-12-24T07:49:06.702Z,50.56
2016-12-24T07:50:15.382Z,50.46
2016-12-24T07:51:24.678Z,50.46
2016-12-24T07:52:33.970Z,50.37
2016-12-24T07:53:43.583Z,50.18
2016-12-24T07:54:53.463Z,50.66
2016-12-24T07:56:02.544Z,50.46
2016-12-24T07:57:11.437Z,50.56
2016-12-24T07:58:20.250Z,50.56
2016-12-24T07:59:29.787Z,50.46
2016-12-24T08:00:38.648Z,50.46
2016-12-24T08:01:49.015Z,50.56
2016-12-24T08:02:58.724Z,50.18
2016-12-24T08:04:07.944Z,50.66
2016-12-24T08:05:17.000Z,50.46
2016-12-24T08:06:25.690Z,50.46
2016-12-24T08:07:34.983Z,50.46
2016-12-24T08:08:43.979Z,50.37
2016-12-24T08:09:53.438Z,50.66
2016-12-24T08:11:03.045Z,50.56
2016-12-24T08:12:11.734Z,50.56
2016-12-24T08:13:20.751Z,50.56
2016-12-24T08:14:29.466Z,50.56
2016-12-24T08:15:38.169Z,50.08
2016-12-24T08:16:47.168Z,50.37
2016-12-24T08:17:56.492Z,49.99
2016-12-24T08:19:06.107Z,50.1
2016-12-24T08:20:14.801Z,49.69
2016-12-24T08:21:24.146Z,50.2
2016-12-24T08:22:33.456Z,49.53
2016-12-24T08:23:43.072Z,49.43
2016-12-24T08:24:52.077Z,49.43
2016-12-24T08:26:00.757Z,48.88
2016-12-24T08:27:10.464Z,48.97
2016-12-24T08:28:19.786Z,48.59
2016-12-24T08:29:28.790Z,48.59
2016-12-24T08:30:38.444Z,48.59
2016-12-24T08:31:47.812Z,48.79
2016-12-24T08:32:57.230Z,49.07
2016-12-24T08:34:05.925Z,48.4
2016-12-24T08:35:15.622Z,48.4
2016-12-24T08:36:24.624Z,48.33
2016-12-24T08:37:33.320Z,48.43
2016-12-24T08:38:42.027Z,48.33
2016-12-24T08:39:51.333Z,48.52
2016-12-24T08:41:00.950Z,48.43
2016-12-24T08:42:10.252Z,48.03
2016-12-24T08:43:19.240Z,48.13
2016-12-24T08:44:28.039Z,47.94
2016-12-24T08:45:37.038Z,48.23
2016-12-24T08:46:45.742Z,47.75
2016-12-24T08:47:55.345Z,47.77
2016-12-24T08:49:04.654Z,47.67
2016-12-24T08:50:13.715Z,47.49
2016-12-24T08:51:23.015Z,47.49
2016-12-24T08:52:32.014Z,47.29
2016-12-24T08:53:41.008Z,47.39
2016-12-24T08:54:50.022Z,47.1
2016-12-24T08:55:59.360Z,47
2016-12-24T08:57:08.063Z,47
2016-12-24T08:58:16.744Z,47.31
2016-12-24T08:59:25.757Z,47.12
2016-12-24T09:00:34.813Z,47.03
2016-12-24T09:01:43.823Z,47.31
2016-12-24T09:02:53.148Z,47.22
2016-12-24T09:04:02.140Z,47.03
2016-12-24T09:05:11.135Z,47.03
2016-12-24T09:06:20.135Z,47.03
2016-12-24T09:07:29.616Z,47.22
2016-12-24T09:08:39.263Z,47.12
2016-12-24T09:09:48.884Z,47.41
2016-12-24T09:10:57.569Z,46.73
2016-12-24T09:12:06.566Z,46.76
2016-12-24T09:13:15.986Z,46.56
2016-12-24T09:14:24.670Z,46.37
2016-12-24T09:15:33.677Z,46.56
2016-12-24T09:16:42.400Z,46.56
2016-12-24T09:17:51.404Z,46.37
2016-12-24T09:19:00.861Z,46.18
2016-12-24T09:20:09.861Z,46.28
2016-12-24T09:21:19.158Z,46.47
2016-12-24T09:22:28.192Z,46.3
2016-12-24T09:23:37.196Z,46.4
2016-12-24T09:24:46.187Z,46.11
2016-12-24T09:25:55.207Z,46.11
2016-12-24T09:27:04.205Z,46.2
2016-12-24T09:28:12.931Z,46.2
2016-12-24T09:29:21.961Z,46.69
2016-12-24T09:30:30.684Z,46.59
2016-12-24T09:31:39.694Z,46.59
2016-12-24T09:32:49.604Z,46.4
2016-12-24T09:33:58.912Z,46.49
2016-12-24T09:35:07.915Z,46.59
2016-12-24T09:36:17.260Z,46.59
2016-12-24T09:37:26.327Z,46.59
2016-12-24T09:38:35.017Z,46.59
2016-12-24T09:39:44.251Z,46.59
2016-12-24T09:40:53.861Z,46.59
2016-12-24T09:42:03.780Z,46.59
2016-12-24T09:43:13.105Z,46.69
2016-12-24T09:44:22.102Z,46.59
2016-12-24T09:45:31.748Z,46.49
2016-12-24T09:46:40.757Z,46.59
2016-12-24T09:47:50.062Z,46.59
2016-12-24T09:48:59.374Z,46.78
2016-12-24T09:50:08.986Z,46.69
2016-12-24T09:51:17.683Z,46.78
2016-12-24T09:52:26.682Z,46.69
2016-12-24T09:53:36.465Z,46.69
2016-12-24T09:54:45.765Z,47.07
2016-12-24T09:55:55.065Z,47.45
2016-12-24T09:57:03.797Z,47.17
2016-12-24T09:58:13.434Z,47.17
2016-12-24T09:59:22.427Z,47.36
2016-12-24T10:00:31.735Z,47.07
2016-12-24T10:01:41.357Z,47.45
2016-12-24T10:02:50.351Z,47.65
2016-12-24T10:03:59.952Z,47.65
2016-12-24T10:05:08.949Z,47.55
2016-12-24T10:06:18.549Z,48.01
2016-12-24T10:07:27.555Z,48.4
2016-12-24T10:08:37.171Z,48.69
2016-12-24T10:09:45.855Z,48.76
2016-12-24T10:10:55.002Z,49.24
2016-12-24T10:12:04.305Z,50.09
2016-12-24T10:13:12.998Z,49.99
2016-12-24T10:14:21.686Z,49.99
2016-12-24T10:15:30.988Z,50.27
2016-12-24T10:16:40.651Z,50.09
2016-12-24T10:17:50.272Z,50.15
2016-12-24T10:18:59.270Z,50.47
2016-12-24T10:20:08.267Z,50.45
2016-12-24T10:21:17.559Z,50.27
2016-12-24T10:22:26.598Z,49.99
2016-12-24T10:23:35.284Z,50.09
2016-12-24T10:24:44.277Z,50.09
2016-12-24T10:25:53.600Z,50.27
2016-12-24T10:27:02.290Z,49.89
2016-12-24T10:28:11.996Z,49.89
2016-12-24T10:29:20.992Z,49.89
2016-12-24T10:30:30.290Z,50.18
2016-12-24T10:31:39.601Z,49.99
2016-12-24T10:32:48.595Z,50.09
2016-12-24T10:33:57.431Z,50.09
2016-12-24T10:35:06.488Z,50.09
2016-12-24T10:36:15.221Z,49.77
2016-12-24T10:37:24.001Z,50.09
2016-12-24T10:38:33.311Z,50.06
2016-12-24T10:39:42.460Z,49.96
2016-12-24T10:40:52.405Z,50.06
2016-12-24T10:42:01.700Z,50.18
2016-12-24T10:43:10.392Z,50.18
2016-12-24T10:44:19.076Z,49.87
2016-12-24T10:45:28.250Z,49.96
2016-12-24T10:46:37.017Z,50.06
2016-12-24T10:47:45.725Z,50.18
2016-12-24T10:48:54.398Z,49.96
2016-12-24T10:50:03.122Z,50.15
2016-12-24T10:51:12.485Z,49.96
2016-12-24T10:52:21.164Z,50.15
2016-12-24T10:53:30.466Z,49.96
2016-12-24T10:54:39.156Z,49.96
2016-12-24T10:55:48.464Z,49.96
2016-12-24T10:56:58.167Z,49.96
2016-12-24T10:58:07.465Z,49.96
2016-12-24T10:59:16.771Z,50.25
2016-12-24T11:00:25.770Z,49.96
2016-12-24T11:01:34.774Z,50.25
2016-12-24T11:02:44.165Z,50.06
2016-12-24T11:03:52.862Z,50.25
2016-12-24T11:05:01.858Z,50.25
2016-12-24T11:06:11.159Z,50.25
2016-12-24T11:07:20.184Z,50.25
2016-12-24T11:08:29.836Z,49.87
2016-12-24T11:09:38.827Z,49.87
2016-12-24T11:10:47.823Z,50.15
2016-12-24T11:11:56.834Z,49.87
2016-12-24T11:13:05.845Z,50.06
2016-12-24T11:14:14.885Z,49.87
2016-12-24T11:15:24.184Z,49.99
2016-12-24T11:16:32.873Z,49.87
2016-12-24T11:17:41.868Z,49.96
2016-12-24T11:18:50.857Z,49.96
2016-12-24T11:19:59.981Z,49.87
2016-12-24T11:21:09.026Z,50.06
2016-12-24T11:22:18.010Z,50.25
2016-12-24T11:23:27.001Z,49.96
2016-12-24T11:24:35.699Z,50.06
2016-12-24T11:25:44.691Z,49.96
2016-12-24T11:26:53.996Z,50.06
2016-12-24T11:28:03.304Z,50.54
2016-12-24T11:29:12.307Z,50.54
2016-12-24T11:30:21.315Z,50.06
2016-12-24T11:31:30.387Z,50.63
2016-12-24T11:32:39.720Z,50.25
2016-12-24T11:33:48.735Z,50.63
2016-12-24T11:34:57.726Z,50.35
2016-12-24T11:36:07.051Z,50.35
2016-12-24T11:37:16.370Z,50.06
2016-12-24T11:38:25.058Z,50.06
2016-12-24T11:39:34.049Z,50.15
2016-12-24T11:40:42.741Z,50.25
2016-12-24T11:41:51.431Z,50.15
2016-12-24T11:43:00.763Z,50.25
2016-12-24T11:44:09.470Z,49.96
2016-12-24T11:45:18.157Z,50.15
2016-12-24T11:46:26.851Z,50.15
2016-12-24T11:47:35.847Z,50.25
2016-12-24T11:48:44.846Z,50.06
2016-12-24T11:49:54.143Z,50.25
2016-12-24T11:51:03.453Z,50.15
2016-12-24T11:52:12.145Z,50.25
2016-12-24T11:53:21.141Z,49.96
2016-12-24T11:54:30.491Z,50.45
2016-12-24T11:55:39.516Z,50.54
2016-12-24T11:56:48.507Z,50.73
2016-12-24T11:57:57.188Z,49.87
2016-12-24T11:59:06.193Z,50.73
2016-12-24T12:00:15.532Z,50.83
2016-12-24T12:01:24.531Z,50.54
2016-12-24T12:02:34.166Z,50.63
2016-12-24T12:03:43.156Z,50.93
2016-12-24T12:04:53.073Z,50.83
2016-12-24T12:06:01.763Z,50.25
2016-12-24T12:07:11.079Z,50.73
2016-12-24T12:08:20.383Z,50.83
2016-12-24T12:09:29.375Z,50.73
2016-12-24T12:10:38.128Z,50.63
2016-12-24T12:11:48.204Z,50.63
2016-12-24T12:12:56.905Z,50.73
2016-12-24T12:14:05.903Z,50.63
2016-12-24T12:15:15.507Z,50.63
2016-12-24T12:16:24.217Z,50.73
2016-12-24T12:17:33.526Z,50.73
2016-12-24T12:18:42.519Z,50.93
2016-12-24T12:19:51.521Z,50.93
2016-12-24T12:21:00.851Z,50.83
2016-12-24T12:22:10.157Z,50.63
2016-12-24T12:23:19.769Z,50.83
2016-12-24T12:24:28.774Z,50.54
2016-12-24T12:25:37.778Z,50.63
2016-12-24T12:26:46.766Z,50.83
2016-12-24T12:27:55.454Z,50.73
2016-12-24T12:29:04.291Z,50.54
2016-12-24T12:30:13.300Z,50.54
2016-12-24T12:31:22.320Z,50.54
2016-12-24T12:32:32.257Z,50.45
2016-12-24T12:33:40.965Z,50.54
2016-12-24T12:34:49.652Z,50.63
2016-12-24T12:35:58.641Z,50.63
2016-12-24T12:37:07.947Z,50.63
2016-12-24T12:38:17.256Z,50.83
2016-12-24T12:39:25.945Z,50.45
2016-12-24T12:40:34.947Z,50.83
2016-12-24T12:41:44.246Z,50.63
2016-12-24T12:42:53.543Z,50.54
2016-12-24T12:44:02.541Z,50.54
2016-12-24T12:45:11.225Z,50.73
2016-12-24T12:46:20.584Z,50.93
2016-12-24T12:47:29.568Z,50.73
2016-12-24T12:48:38.878Z,50.73
2016-12-24T12:49:48.193Z,50.63
2016-12-24T12:50:57.189Z,51.21
2016-12-24T12:52:06.024Z,51.12
2016-12-24T12:53:15.627Z,51.12
2016-12-24T12:54:24.621Z,51.02
2016-12-24T12:55:33.331Z,51.21
2016-12-24T12:56:42.338Z,50.93
2016-12-24T12:57:51.337Z,50.93
2016-12-24T12:59:00.342Z,51.21
2016-12-24T13:00:09.052Z,51.21
2016-12-24T13:01:18.663Z,50.93
2016-12-24T13:02:27.704Z,51.02
2016-12-24T13:03:36.819Z,50.83
2016-12-24T13:04:46.421Z,50.93
2016-12-24T13:05:56.034Z,50.83
2016-12-24T13:07:04.722Z,50.83
2016-12-24T13:08:14.036Z,51.12
2016-12-24T13:09:22.729Z,50.83
2016-12-24T13:10:31.770Z,50.83
2016-12-24T13:11:40.476Z,51.21
2016-12-24T13:12:49.781Z,51.21
2016-12-24T13:13:58.786Z,51.21
2016-12-24T13:15:07.634Z,51.31
2016-12-24T13:16:16.322Z,50.83
2016-12-24T13:17:25.374Z,51.02
2016-12-24T13:18:34.677Z,50.93
2016-12-24T13:19:43.704Z,51.31
2016-12-24T13:20:53.426Z,51.41
2016-12-24T13:22:02.118Z,51.31
2016-12-24T13:23:11.422Z,51.21
2016-12-24T13:24:20.115Z,51.12
2016-12-24T13:25:29.417Z,51.12
2016-12-24T13:26:38.716Z,51.21
2016-12-24T13:27:48.029Z,51.21
2016-12-24T13:28:57.342Z,51.31
2016-12-24T13:30:06.654Z,51.21
2016-12-24T13:31:15.402Z,51.21
2016-12-24T13:32:24.441Z,51.21
2016-12-24T13:33:33.128Z,51.21
2016-12-24T13:34:42.454Z,51.12
2016-12-24T13:35:51.168Z,51.12
2016-12-24T13:37:00.217Z,51.12
2016-12-24T13:38:09.368Z,51.31
2016-12-24T13:39:18.399Z,51.31
2016-12-24T13:40:27.103Z,50.93
2016-12-24T13:41:36.110Z,51.41
2016-12-24T13:42:44.825Z,51.21
2016-12-24T13:43:54.789Z,51.12
2016-12-24T13:45:03.484Z,51.21
2016-12-24T13:46:12.472Z,51.21
2016-12-24T13:47:21.490Z,51.21
2016-12-24T13:48:30.495Z,51.31
2016-12-24T13:49:39.956Z,51.31
2016-12-24T13:50:48.968Z,51.31
2016-12-24T13:51:57.987Z,51.12
2016-12-24T13:53:06.706Z,51.31
2016-12-24T13:54:16.022Z,51.12
2016-12-24T13:55:25.072Z,51.31
2016-12-24T13:56:34.082Z,51.6
2016-12-24T13:57:43.112Z,51.79
2016-12-24T13:58:51.851Z,51.79
2016-12-24T14:00:00.578Z,51.7
2016-12-24T14:01:09.733Z,51.7
2016-12-24T14:02:18.813Z,51.7
2016-12-24T14:03:28.131Z,51.7
2016-12-24T14:04:37.487Z,51.7
2016-12-24T14:05:46.484Z,51.21
2016-12-24T14:06:55.492Z,51.21
2016-12-24T14:08:04.498Z,51.31
2016-12-24T14:09:13.810Z,51.12
2016-12-24T14:10:22.808Z,51.31
2016-12-24T14:11:31.812Z,51.12
2016-12-24T14:12:40.853Z,51.21
2016-12-24T14:13:49.569Z,51.41
2016-12-24T14:14:58.873Z,51.12
2016-12-24T14:16:08.486Z,51.31
2016-12-24T14:17:17.175Z,51.41
2016-12-24T14:18:26.498Z,51.12
2016-12-24T14:19:35.807Z,51.21
2016-12-24T14:20:44.823Z,51.31
2016-12-24T14:21:53.509Z,51.31
2016-12-24T14:23:02.203Z,51.31
2016-12-24T14:24:11.567Z,51.31
2016-12-24T14:25:20.916Z,51.21
2016-12-24T14:26:30.239Z,51.41
2016-12-24T14:27:39.236Z,51.41
2016-12-24T14:28:48.533Z,51.31
2016-12-24T14:29:57.534Z,51.12
2016-12-24T14:31:06.536Z,51.24
2016-12-24T14:32:16.153Z,51.21
2016-12-24T14:33:25.162Z,51.21
2016-12-24T14:34:34.163Z,51.02
2016-12-24T14:35:43.317Z,51.31
2016-12-24T14:36:52.627Z,51.79
2016-12-24T14:38:01.625Z,51.79
2016-12-24T14:39:10.688Z,51.7
2016-12-24T14:40:19.990Z,51.79
2016-12-24T14:41:28.687Z,51.89
2016-12-24T14:42:37.686Z,51.89
2016-12-24T14:43:46.382Z,51.79
2016-12-24T14:44:55.088Z,51.7
2016-12-24T14:46:04.392Z,51.5
2016-12-24T14:47:13.228Z,51.89
2016-12-24T14:48:22.563Z,51.6
2016-12-24T14:49:31.250Z,51.5
2016-12-24T14:50:39.973Z,51.79